createdAt,value
2019-04-04T00:01:33.298Z,27.50
2019-04-04T00:04:04.114Z,27.50
2019-04-04T00:06:35.652Z,27.50
2019-04-04T00:09:09.108Z,27.50
2019-04-04T00:11:40.524Z,27.50
2019-04-04T00:14:12.656Z,27.50
2019-04-04T00:16:43.331Z,27.50
2019-04-04T00:19:14.359Z,27.50
2019-04-04T00:21:45.091Z,27.50
2019-04-04T00:24:15.519Z,27.60
2019-04-04T00:26:46.755Z,27.60
2019-04-04T00:29:17.868Z,27.60
2019-04-04T00:32:09.033Z,27.60
2019-04-04T00:34:41.026Z,27.70
2019-04-04T00:37:11.714Z,27.70
2019-04-04T00:39:42.646Z,27.70
2019-04-04T00:42:15.020Z,27.70
2019-04-04T00:44:45.522Z,27.70
2019-04-04T00:47:16.620Z,27.70
2019-04-04T00:49:47.900Z,27.80
2019-04-04T00:52:18.647Z,27.80
2019-04-04T00:54:49.528Z,27.80
2019-04-04T00:57:20.406Z,27.90
2019-04-04T00:59:53.339Z,27.90
2019-04-04T01:02:27.285Z,27.90
2019-04-04T01:04:57.637Z,27.90
2019-04-04T01:07:28.312Z,28.00
2019-04-04T01:09:59.662Z,28.00
2019-04-04T01:15:19.619Z,28.10
2019-04-04T01:17:50.054Z,28.10
2019-04-04T01:20:20.840Z,28.10
2019-04-04T01:22:51.927Z,28.20
2019-04-04T01:25:22.659Z,28.20
2019-04-04T01:27:53.130Z,28.30
2019-04-04T01:30:24.033Z,28.30
2019-04-04T01:32:56.016Z,28.40
2019-04-04T01:35:26.799Z,28.40
2019-04-04T01:40:49.769Z,28.60
2019-04-04T01:43:22.686Z,28.60
2019-04-04T01:46:04.369Z,28.70
2019-04-04T01:51:28.799Z,28.90
2019-04-04T01:54:00.983Z,29.00
2019-04-04T01:56:31.951Z,29.00
2019-04-04T01:59:02.749Z,29.10
2019-04-04T02:01:33.474Z,29.20
2019-04-04T02:04:04.356Z,29.30
2019-04-04T02:06:35.129Z,29.40
2019-04-04T02:09:07.690Z,29.40
2019-04-04T02:11:38.978Z,29.50
2019-04-04T02:14:09.856Z,29.50
2019-04-04T02:16:41.886Z,29.60
2019-04-04T02:19:13.009Z,29.60
2019-04-04T02:21:43.804Z,29.70
2019-04-04T02:24:14.771Z,29.70
2019-04-04T02:26:45.737Z,29.70
2019-04-04T02:29:16.413Z,29.70
2019-04-04T02:31:57.713Z,29.80
2019-04-04T02:34:28.395Z,29.90
2019-04-04T02:36:59.107Z,29.90
2019-04-04T02:39:29.992Z,29.90
2019-04-04T02:42:00.686Z,29.90
2019-04-04T02:44:32.277Z,29.90
2019-04-04T02:47:04.006Z,29.90
2019-04-04T02:49:35.767Z,30.00
2019-04-04T02:52:06.646Z,30.00
2019-04-04T02:54:37.804Z,30.00
2019-04-04T03:00:09.163Z,30.10
2019-04-04T03:02:40.027Z,30.10
2019-04-04T03:05:10.966Z,30.20
2019-04-04T03:07:43.254Z,30.30
2019-04-04T03:10:16.440Z,30.30
2019-04-04T03:12:46.460Z,30.50
2019-04-04T03:15:17.148Z,30.50
2019-04-04T03:17:48.129Z,30.50
2019-04-04T03:20:19.149Z,30.50
2019-04-04T03:22:49.977Z,30.50
2019-04-04T03:25:20.854Z,30.50
2019-04-04T03:27:51.794Z,30.70
2019-04-04T03:30:22.570Z,30.60
2019-04-04T03:32:54.867Z,30.70
2019-04-04T03:35:28.025Z,30.70
2019-04-04T03:37:57.843Z,30.70
2019-04-04T03:40:28.650Z,30.70
2019-04-04T03:42:59.539Z,31.00
2019-04-04T03:45:30.465Z,31.00
2019-04-04T03:48:01.227Z,31.10
2019-04-04T03:50:32.649Z,31.10
2019-04-04T03:53:03.415Z,31.10
2019-04-04T03:55:34.606Z,31.20
2019-04-04T03:58:05.544Z,31.40
2019-04-04T04:00:39.196Z,31.40
2019-04-04T04:03:09.026Z,31.50
2019-04-04T04:05:40.931Z,31.40
2019-04-04T04:08:11.936Z,31.50
2019-04-04T04:10:42.883Z,31.50
2019-04-04T04:13:16.388Z,31.70
2019-04-04T04:15:46.352Z,31.80
2019-04-04T04:18:20.090Z,31.90
2019-04-04T04:20:49.239Z,31.90
2019-04-04T04:23:23.011Z,31.90
2019-04-04T04:25:52.288Z,32.00
2019-04-04T04:28:23.018Z,32.10
2019-04-04T04:30:53.966Z,32.10
2019-04-04T04:33:28.798Z,32.10
2019-04-04T04:35:56.822Z,32.20
2019-04-04T04:38:27.841Z,32.20
2019-04-04T04:40:58.577Z,32.20
2019-04-04T04:43:32.396Z,32.30
2019-04-04T04:46:01.821Z,32.40
2019-04-04T04:48:32.883Z,32.30
2019-04-04T04:51:03.683Z,32.30
2019-04-04T04:53:34.491Z,32.40
2019-04-04T04:56:05.575Z,32.50
2019-04-04T04:58:36.272Z,32.50
2019-04-04T05:01:07.261Z,32.60
2019-04-04T05:03:37.908Z,32.60
2019-04-04T05:06:08.681Z,32.70
2019-04-04T05:08:41.021Z,32.70
2019-04-04T05:11:14.382Z,32.70
2019-04-04T05:13:44.536Z,32.80
2019-04-04T05:16:15.283Z,32.70
2019-04-04T05:18:47.459Z,32.70
2019-04-04T05:21:24.992Z,32.70
2019-04-04T05:23:51.083Z,32.80
2019-04-04T05:26:22.083Z,32.90
2019-04-04T05:28:52.934Z,32.80
2019-04-04T05:31:23.646Z,32.90
2019-04-04T05:33:54.691Z,32.90
2019-04-04T05:36:25.525Z,33.00
2019-04-04T05:38:56.243Z,33.00
2019-04-04T05:41:27.355Z,33.10
2019-04-04T05:43:58.810Z,33.10
2019-04-04T05:46:29.875Z,33.10
2019-04-04T05:49:07.558Z,33.10
2019-04-04T05:51:35.972Z,33.10
2019-04-04T05:54:07.052Z,33.20
2019-04-04T05:56:37.733Z,33.20
2019-04-04T05:59:09.387Z,33.20
2019-04-04T06:01:40.219Z,33.10
2019-04-04T06:04:11.222Z,33.20
2019-04-04T06:06:41.992Z,33.30
2019-04-04T06:09:14.627Z,33.30
2019-04-04T06:11:45.105Z,33.30
2019-04-04T06:14:15.979Z,33.30
2019-04-04T06:16:46.891Z,33.40
2019-04-04T06:19:18.667Z,33.50
2019-04-04T06:21:50.012Z,33.50
2019-04-04T06:24:21.448Z,33.50
2019-04-04T06:26:52.109Z,33.60
2019-04-04T06:29:22.860Z,33.70
2019-04-04T06:31:53.829Z,33.70
2019-04-04T06:34:24.512Z,33.70
2019-04-04T06:36:55.219Z,33.70
2019-04-04T06:39:26.127Z,33.80
2019-04-04T06:41:56.977Z,33.90
2019-04-04T06:44:27.735Z,33.90
2019-04-04T06:46:58.723Z,33.90
2019-04-04T06:49:29.343Z,34.00
2019-04-04T06:52:00.095Z,33.90
2019-04-04T06:54:30.983Z,33.90
2019-04-04T06:57:04.084Z,34.00
2019-04-04T06:59:34.705Z,34.00
2019-04-04T07:02:05.782Z,34.00
2019-04-04T07:04:36.551Z,34.10
2019-04-04T07:07:07.442Z,34.10
2019-04-04T07:09:38.193Z,34.10
2019-04-04T07:12:20.315Z,34.10
2019-04-04T07:14:46.307Z,34.10
2019-04-04T07:17:16.185Z,34.10
2019-04-04T07:19:46.871Z,34.20
2019-04-04T07:22:20.393Z,34.30
2019-04-04T07:24:50.159Z,34.30
2019-04-04T07:27:20.823Z,34.20
2019-04-04T07:29:51.546Z,34.20
2019-04-04T07:32:22.444Z,34.30
2019-04-04T07:34:53.210Z,34.30
2019-04-04T07:37:25.186Z,34.30
2019-04-04T07:39:56.229Z,34.30
2019-04-04T07:42:26.987Z,34.40
2019-04-04T07:44:57.716Z,34.40
2019-04-04T07:47:28.614Z,34.40
2019-04-04T07:49:59.302Z,34.40
2019-04-04T07:52:32.836Z,34.20
2019-04-04T07:55:02.320Z,34.30
2019-04-04T07:57:33.568Z,34.30
2019-04-04T08:00:04.299Z,34.20
2019-04-04T08:02:35.196Z,34.20
2019-04-04T08:05:07.358Z,34.30
2019-04-04T08:07:38.102Z,34.30
2019-04-04T08:10:19.992Z,34.30
2019-04-04T08:12:42.615Z,34.40
2019-04-04T08:15:13.576Z,34.40
2019-04-04T08:17:44.695Z,34.40
2019-04-04T08:20:15.759Z,34.40
2019-04-04T08:22:46.740Z,34.50
2019-04-04T08:25:17.508Z,34.50
2019-04-04T08:27:48.226Z,34.50
2019-04-04T08:30:19.351Z,34.40
2019-04-04T08:32:50.183Z,34.40
2019-04-04T08:35:20.917Z,34.40
2019-04-04T08:37:51.798Z,34.40
2019-04-04T08:40:22.938Z,34.50
2019-04-04T08:42:53.786Z,34.40
2019-04-04T08:45:24.685Z,34.40
2019-04-04T08:47:58.303Z,34.30
2019-04-04T08:50:30.138Z,34.40
2019-04-04T08:53:01.008Z,34.40
2019-04-04T08:55:32.072Z,34.30
2019-04-04T08:58:03.366Z,34.40
2019-04-04T09:00:34.126Z,34.40
2019-04-04T09:03:04.937Z,34.30
2019-04-04T09:05:37.870Z,34.20
2019-04-04T09:08:08.584Z,34.20
2019-04-04T09:10:44.595Z,34.10
2019-04-04T09:18:58.647Z,34.10
2019-04-04T09:21:29.993Z,34.10
2019-04-04T09:24:01.487Z,34.10
2019-04-04T09:29:23.542Z,33.90
2019-04-04T09:31:54.453Z,33.90
2019-04-04T09:34:26.215Z,33.90
2019-04-04T09:36:57.262Z,33.80
2019-04-04T09:39:28.250Z,33.80
2019-04-04T09:41:59.009Z,33.80
2019-04-04T09:44:29.745Z,33.80
2019-04-04T09:47:05.576Z,33.80
2019-04-04T09:49:32.909Z,33.70
2019-04-04T09:52:03.637Z,33.60
2019-04-04T09:54:34.242Z,33.60
2019-04-04T09:57:07.101Z,33.60
2019-04-04T09:59:37.864Z,33.60
2019-04-04T10:04:59.393Z,33.40
2019-04-04T10:07:30.409Z,33.40
2019-04-04T10:10:01.096Z,33.30
2019-04-04T10:12:31.917Z,33.20
2019-04-04T10:15:02.807Z,33.10
2019-04-04T10:17:33.487Z,33.00
2019-04-04T10:20:04.830Z,32.90
2019-04-04T10:22:35.760Z,32.90
2019-04-04T10:25:07.316Z,32.80
2019-04-04T10:27:38.091Z,32.80
2019-04-04T10:30:10.141Z,32.80
2019-04-04T10:32:40.830Z,32.70
2019-04-04T10:35:11.589Z,32.60
2019-04-04T10:37:42.487Z,32.50
2019-04-04T10:40:13.326Z,32.40
2019-04-04T10:42:44.069Z,32.30
2019-04-04T10:45:19.865Z,32.20
2019-04-04T10:47:50.765Z,32.10
2019-04-04T10:50:21.641Z,32.00
2019-04-04T10:52:52.647Z,32.00
2019-04-04T10:55:23.331Z,32.00
2019-04-04T10:57:54.206Z,32.00
2019-04-04T11:00:25.533Z,31.90
2019-04-04T11:02:56.319Z,31.80
2019-04-04T11:05:27.315Z,31.80
2019-04-04T11:07:57.740Z,31.60
2019-04-04T11:10:28.497Z,31.60
2019-04-04T11:12:59.389Z,31.60
2019-04-04T11:15:30.051Z,31.50
2019-04-04T11:18:00.782Z,31.50
2019-04-04T11:20:31.682Z,31.50
2019-04-04T11:23:02.724Z,31.40
2019-04-04T11:25:33.470Z,31.40
2019-04-04T11:28:04.386Z,31.30
2019-04-04T11:30:35.130Z,31.30
2019-04-04T11:33:05.850Z,31.20
2019-04-04T11:35:36.739Z,31.20
2019-04-04T11:38:07.415Z,31.20
2019-04-04T11:40:38.136Z,31.20
2019-04-04T11:43:09.134Z,31.10
2019-04-04T11:45:39.836Z,31.00
2019-04-04T11:48:10.732Z,30.90
2019-04-04T11:50:41.627Z,30.90
2019-04-04T11:59:41.230Z,30.90
2019-04-04T12:02:24.258Z,30.80
2019-04-04T12:07:53.790Z,30.80
2019-04-04T12:10:24.470Z,30.80
2019-04-04T12:12:58.593Z,30.80
2019-04-04T12:15:28.832Z,30.70
2019-04-04T12:18:01.303Z,30.60
2019-04-04T12:20:36.232Z,30.60
2019-04-04T12:23:08.592Z,30.60
2019-04-04T12:28:35.660Z,30.50
2019-04-04T12:31:09.139Z,30.50
2019-04-04T12:33:43.771Z,30.60
2019-04-04T12:36:24.550Z,30.50
2019-04-04T12:38:48.744Z,30.50
2019-04-04T12:41:20.255Z,30.50
2019-04-04T12:43:51.190Z,30.40
2019-04-04T12:46:22.062Z,30.40
2019-04-04T12:48:52.780Z,30.40
2019-04-04T12:51:25.124Z,30.50
2019-04-04T12:53:55.842Z,30.50
2019-04-04T12:56:26.543Z,30.50
2019-04-04T12:58:57.460Z,30.50
2019-04-04T13:01:31.647Z,30.40
2019-04-04T13:04:02.856Z,30.40
2019-04-04T13:06:33.682Z,30.40
2019-04-04T13:09:04.814Z,30.40
2019-04-04T13:11:35.701Z,30.40
2019-04-04T13:14:07.073Z,30.40
2019-04-04T13:16:37.809Z,30.40
2019-04-04T13:19:11.591Z,30.40
2019-04-04T13:21:43.673Z,30.40
2019-04-04T13:27:03.919Z,30.30
2019-04-04T13:29:34.646Z,30.30
2019-04-04T13:32:05.471Z,30.30
2019-04-04T13:34:36.387Z,30.20
2019-04-04T13:37:07.320Z,30.30
2019-04-04T13:39:38.097Z,30.20
2019-04-04T13:42:09.015Z,30.30
2019-04-04T13:44:41.593Z,30.20
2019-04-04T13:47:32.524Z,30.10
2019-04-04T13:50:03.333Z,30.20
2019-04-04T13:52:36.889Z,30.10
2019-04-04T13:55:39.034Z,30.20
2019-04-04T13:58:02.805Z,30.20
2019-04-04T14:00:34.999Z,30.20
2019-04-04T14:03:08.304Z,30.20
2019-04-04T14:05:39.823Z,30.10
2019-04-04T14:08:14.306Z,30.20
2019-04-04T14:10:57.910Z,30.20
2019-04-04T14:13:21.610Z,30.20
2019-04-04T14:15:52.243Z,30.10
2019-04-04T14:18:38.255Z,30.10
2019-04-04T14:21:03.701Z,30.20
2019-04-04T14:23:33.036Z,30.20
2019-04-04T14:26:05.386Z,30.10
2019-04-04T14:28:36.973Z,30.20
2019-04-04T14:31:07.571Z,30.20
2019-04-04T14:33:40.546Z,30.10
2019-04-04T14:36:11.261Z,30.10
2019-04-04T14:38:41.934Z,30.10
2019-04-04T14:41:14.884Z,30.10
2019-04-04T14:43:45.713Z,30.00
2019-04-04T14:46:16.767Z,30.10
2019-04-04T14:48:47.478Z,30.00
2019-04-04T14:57:19.680Z,30.00
2019-04-04T14:59:50.759Z,30.00
2019-04-04T15:02:21.708Z,30.00
2019-04-04T15:04:55.170Z,30.00
2019-04-04T15:07:26.693Z,30.00
2019-04-04T15:09:58.815Z,30.00
2019-04-04T15:12:29.797Z,30.00
2019-04-04T15:15:00.313Z,30.00
2019-04-04T15:17:31.059Z,30.00
2019-04-04T15:20:03.207Z,30.00
2019-04-04T15:22:33.979Z,30.00
2019-04-04T15:25:06.868Z,30.00
2019-04-04T15:27:39.748Z,30.00
2019-04-04T15:30:12.994Z,30.00
2019-04-04T15:32:44.264Z,29.90
2019-04-04T15:35:18.667Z,30.00
2019-04-04T15:37:50.963Z,30.00
2019-04-04T15:40:21.944Z,29.90
2019-04-04T15:42:52.749Z,29.90
2019-04-04T15:45:23.610Z,30.00
2019-04-04T15:47:54.424Z,30.00
2019-04-04T15:50:25.212Z,29.90
2019-04-04T15:52:56.211Z,29.90
2019-04-04T15:55:27.692Z,29.90
2019-04-04T15:57:58.502Z,29.90
2019-04-04T16:00:29.586Z,29.90
2019-04-04T16:03:02.080Z,29.90
2019-04-04T16:05:32.889Z,30.00
2019-04-04T16:08:05.398Z,30.00
2019-04-04T16:10:36.278Z,30.00
2019-04-04T16:13:06.993Z,30.10
2019-04-04T16:15:37.875Z,30.00
2019-04-04T16:18:08.653Z,29.90
2019-04-04T16:20:39.464Z,29.90
2019-04-04T16:23:10.377Z,29.90
2019-04-04T16:25:41.227Z,30.00
2019-04-04T16:28:11.950Z,29.90
2019-04-04T16:30:44.469Z,29.90
2019-04-04T16:33:15.310Z,29.90
2019-04-04T16:35:46.054Z,29.90
2019-04-04T16:38:16.971Z,29.90
2019-04-04T16:40:47.567Z,30.00
2019-04-04T16:43:19.347Z,29.90
2019-04-04T16:48:39.143Z,29.80
2019-04-04T16:51:10.053Z,29.80
2019-04-04T16:53:40.805Z,29.90
2019-04-04T16:56:11.517Z,30.00
2019-04-04T16:58:42.107Z,29.90
2019-04-04T17:01:12.831Z,29.80
2019-04-04T17:03:43.610Z,29.80
2019-04-04T17:06:14.717Z,29.80
2019-04-04T17:11:36.894Z,29.80
2019-04-04T17:14:08.794Z,29.80
2019-04-04T17:19:30.239Z,29.80
2019-04-04T17:22:01.877Z,29.80
2019-04-04T17:24:32.578Z,29.80
2019-04-04T17:27:03.335Z,29.80
2019-04-04T17:32:26.118Z,29.80
2019-04-04T17:34:57.107Z,29.90
2019-04-04T17:37:27.982Z,29.90
2019-04-04T17:39:58.955Z,29.90
2019-04-04T17:42:32.402Z,29.70
2019-04-04T17:45:02.602Z,29.80
2019-04-04T17:47:34.147Z,29.80
2019-04-04T17:50:06.347Z,29.70
2019-04-04T17:52:37.235Z,29.70
2019-04-04T17:55:09.255Z,29.70
2019-04-04T17:57:39.934Z,29.70
2019-04-04T18:00:12.989Z,29.70
2019-04-04T18:02:43.736Z,29.70
2019-04-04T18:05:14.636Z,29.70
2019-04-04T18:07:45.553Z,29.70
2019-04-04T18:10:18.899Z,29.70
2019-04-04T18:12:49.800Z,29.70
2019-04-04T18:15:20.553Z,29.70
2019-04-04T18:17:51.322Z,29.70
2019-04-04T18:20:32.503Z,29.80
2019-04-04T18:23:03.285Z,29.70
2019-04-04T18:25:34.182Z,29.70
2019-04-04T18:28:04.943Z,29.70
2019-04-04T18:30:35.883Z,29.60
2019-04-04T18:33:07.116Z,29.60
2019-04-04T18:35:38.223Z,29.70
2019-04-04T18:38:09.105Z,29.70
2019-04-04T18:40:42.281Z,29.60
2019-04-04T18:43:24.930Z,29.60
2019-04-04T18:45:57.653Z,29.60
2019-04-04T18:48:29.335Z,29.50
2019-04-04T18:51:00.431Z,29.50
2019-04-04T18:53:31.186Z,29.50
2019-04-04T18:56:21.122Z,29.50
2019-04-04T18:58:51.906Z,29.50
2019-04-04T19:01:22.318Z,29.50
2019-04-04T19:03:53.225Z,29.50
2019-04-04T19:06:23.787Z,29.50
2019-04-04T19:08:54.621Z,29.40
2019-04-04T19:11:25.989Z,29.50
2019-04-04T19:13:57.260Z,29.50
2019-04-04T19:16:27.994Z,29.60
2019-04-04T19:18:58.913Z,29.50
2019-04-04T19:21:30.945Z,29.40
2019-04-04T19:24:03.587Z,29.40
2019-04-04T19:29:31.611Z,29.30
2019-04-04T19:32:02.259Z,29.40
2019-04-04T19:37:27.371Z,29.40
2019-04-04T19:39:58.344Z,29.40
2019-04-04T19:42:30.332Z,29.40
2019-04-04T19:45:01.011Z,29.40
2019-04-04T19:47:31.895Z,29.40
2019-04-04T19:50:02.658Z,29.40
2019-04-04T19:52:33.089Z,29.40
2019-04-04T19:55:04.033Z,29.30
2019-04-04T19:57:37.256Z,29.30
2019-04-04T20:00:11.933Z,29.30
2019-04-04T20:02:44.030Z,29.50
2019-04-04T20:05:15.212Z,29.40
2019-04-04T20:07:47.065Z,29.40
2019-04-04T20:10:17.910Z,29.30
2019-04-04T20:12:49.106Z,29.30
2019-04-04T20:15:19.887Z,29.40
2019-04-04T20:17:50.602Z,29.30
2019-04-04T20:20:50.270Z,29.30
2019-04-04T20:23:21.049Z,29.30
2019-04-04T20:25:52.041Z,29.30
2019-04-04T20:28:22.703Z,29.30
2019-04-04T20:30:53.137Z,29.30
2019-04-04T20:33:23.932Z,29.30
2019-04-04T20:36:14.650Z,29.30
2019-04-04T20:38:47.491Z,29.20
2019-04-04T20:41:18.234Z,29.20
2019-04-04T20:46:40.894Z,29.20
2019-04-04T20:49:11.673Z,29.20
2019-04-04T20:51:42.419Z,29.30
2019-04-04T20:54:13.360Z,29.20
2019-04-04T20:56:45.246Z,29.20
2019-04-04T20:59:16.015Z,29.20
2019-04-04T21:01:54.961Z,29.20
2019-04-04T21:04:25.808Z,29.30
2019-04-04T21:06:56.517Z,29.20
2019-04-04T21:09:29.071Z,29.20
2019-04-04T21:11:59.876Z,29.20
2019-04-04T21:14:33.579Z,29.20
2019-04-04T21:17:04.518Z,29.10
2019-04-04T21:19:43.629Z,29.10
2019-04-04T21:22:26.816Z,29.20
2019-04-04T21:24:59.972Z,29.10
2019-04-04T21:27:33.632Z,29.20
2019-04-04T21:30:06.658Z,29.20
2019-04-04T21:32:38.881Z,29.10
2019-04-04T21:35:27.030Z,29.10
2019-04-04T21:37:58.068Z,29.00
2019-04-04T21:40:29.181Z,29.10
2019-04-04T21:43:00.019Z,29.10
2019-04-04T21:45:30.889Z,29.00
2019-04-04T21:48:01.632Z,29.00
2019-04-04T21:50:32.370Z,29.10
2019-04-04T21:53:03.353Z,29.10
2019-04-04T21:55:34.030Z,29.00
2019-04-04T21:58:04.747Z,29.10
2019-04-04T22:00:37.111Z,29.00
2019-04-04T22:03:07.909Z,29.00
2019-04-04T22:05:38.695Z,29.00
2019-04-04T22:08:09.795Z,28.90
2019-04-04T22:10:40.603Z,29.00
2019-04-04T22:13:11.617Z,28.90
2019-04-04T22:15:42.823Z,28.90
2019-04-04T22:18:13.623Z,28.90
2019-04-04T22:20:44.433Z,28.90
2019-04-04T22:23:15.599Z,28.90
2019-04-04T22:25:46.389Z,28.90
2019-04-04T22:28:17.218Z,28.90
2019-04-04T22:30:48.110Z,28.80
2019-04-04T22:33:18.871Z,28.90
2019-04-04T22:35:51.730Z,28.80
2019-04-04T22:38:22.727Z,28.80
2019-04-04T22:40:53.579Z,28.80
2019-04-04T22:43:24.845Z,28.80
2019-04-04T22:48:34.328Z,28.90
2019-04-04T22:51:05.517Z,28.80
2019-04-04T22:53:36.642Z,28.80
2019-04-04T22:56:07.561Z,28.70
2019-04-04T22:58:58.595Z,28.70
2019-04-04T23:01:29.380Z,28.70
2019-04-04T23:04:00.228Z,28.70
2019-04-04T23:06:31.236Z,28.70
2019-04-04T23:09:02.087Z,28.70
2019-04-04T23:11:34.239Z,28.70
2019-04-04T23:14:05.230Z,28.70
2019-04-04T23:16:36.274Z,28.70
2019-04-04T23:19:09.726Z,28.70
2019-04-04T23:21:40.150Z,28.70
2019-04-04T23:24:10.580Z,28.70
2019-04-04T23:26:41.214Z,28.70
2019-04-04T23:29:11.670Z,28.70
2019-04-04T23:50:23.728Z,28.70
2019-04-04T23:52:54.562Z,28.70
2019-04-04T23:55:25.665Z,28.70
2019-04-04T23:57:56.768Z,28.70
